createdAt,value
2023-05-07T00:00:08.361Z,0
2023-05-07T00:01:08.322Z,0
2023-05-07T00:02:08.327Z,0
2023-05-07T00:03:08.530Z,0
2023-05-07T00:04:08.528Z,0
2023-05-07T00:05:08.625Z,0
2023-05-07T00:06:08.327Z,0
2023-05-07T00:07:08.319Z,0
2023-05-07T00:08:08.323Z,0
2023-05-07T00:09:08.316Z,0
2023-05-07T00:10:08.501Z,0
2023-05-07T00:11:08.330Z,0
2023-05-07T00:12:08.328Z,0
2023-05-07T00:13:08.337Z,0
2023-05-07T00:14:08.325Z,0
2023-05-07T00:15:08.326Z,0
2023-05-07T00:16:08.366Z,0
2023-05-07T00:17:08.324Z,0
2023-05-07T00:18:08.332Z,0
2023-05-07T00:19:08.324Z,0
2023-05-07T00:20:08.408Z,0
2023-05-07T00:21:08.430Z,0
2023-05-07T00:22:08.325Z,0
2023-05-07T00:23:08.332Z,0
2023-05-07T00:24:08.332Z,0
2023-05-07T00:25:08.337Z,0
2023-05-07T00:26:08.335Z,0
2023-05-07T00:27:08.344Z,0
2023-05-07T00:28:08.336Z,0
2023-05-07T00:29:08.332Z,0
2023-05-07T00:30:08.411Z,0
2023-05-07T00:31:08.347Z,0
2023-05-07T00:32:08.378Z,0
2023-05-07T00:33:08.402Z,0
2023-05-07T00:34:08.340Z,0
2023-05-07T00:35:08.500Z,0
2023-05-07T00:36:08.354Z,0
2023-05-07T00:37:08.460Z,0
2023-05-07T00:38:08.348Z,0
2023-05-07T00:39:08.347Z,0
2023-05-07T00:40:08.480Z,0
2023-05-07T00:41:08.361Z,0
2023-05-07T00:42:08.359Z,0
2023-05-07T00:43:08.350Z,0
2023-05-07T00:44:08.354Z,0
2023-05-07T00:45:08.354Z,0
2023-05-07T00:46:08.385Z,0
2023-05-07T00:47:08.360Z,0
2023-05-07T00:48:08.456Z,0
2023-05-07T00:49:08.368Z,0
2023-05-07T00:50:08.429Z,0
2023-05-07T00:51:08.391Z,0
2023-05-07T00:52:08.365Z,0
2023-05-07T00:53:08.462Z,0
2023-05-07T00:54:08.365Z,0
2023-05-07T00:55:08.504Z,0
2023-05-07T00:56:08.369Z,0
2023-05-07T00:57:08.368Z,0
2023-05-07T00:58:08.369Z,0
2023-05-07T00:59:08.419Z,0
2023-05-07T01:00:08.383Z,0
2023-05-07T01:01:08.381Z,0
2023-05-07T01:02:08.370Z,0
2023-05-07T01:03:08.371Z,0
2023-05-07T01:04:08.429Z,0
2023-05-07T01:05:08.378Z,0
2023-05-07T01:06:08.373Z,0
2023-05-07T01:07:08.379Z,0
2023-05-07T01:08:08.380Z,0
2023-05-07T01:09:08.418Z,0
2023-05-07T01:10:08.467Z,0
2023-05-07T01:11:08.384Z,0
2023-05-07T01:12:08.397Z,0
2023-05-07T01:13:08.420Z,0
2023-05-07T01:14:08.387Z,0
2023-05-07T01:15:08.386Z,0
2023-05-07T01:16:08.393Z,0
2023-05-07T01:17:08.423Z,0
2023-05-07T01:18:08.449Z,0
2023-05-07T01:19:08.393Z,0
2023-05-07T01:20:08.499Z,0
2023-05-07T01:21:08.394Z,0
2023-05-07T01:22:08.404Z,0
2023-05-07T01:23:08.397Z,0
2023-05-07T01:24:08.396Z,0
2023-05-07T01:25:08.470Z,0
2023-05-07T01:26:08.400Z,0
2023-05-07T01:27:08.405Z,0
2023-05-07T01:28:08.401Z,0
2023-05-07T01:29:08.405Z,0
2023-05-07T01:30:08.447Z,0
2023-05-07T01:31:08.416Z,0
2023-05-07T01:32:08.408Z,0
2023-05-07T01:33:08.431Z,0
2023-05-07T01:34:08.406Z,0
2023-05-07T01:35:08.419Z,0
2023-05-07T01:36:08.410Z,0
2023-05-07T01:37:08.413Z,0
2023-05-07T01:38:08.412Z,0
2023-05-07T01:39:08.409Z,0
2023-05-07T01:40:08.645Z,0
2023-05-07T01:41:08.697Z,0
2023-05-07T01:42:08.420Z,0
2023-05-07T01:43:08.411Z,0
2023-05-07T01:44:08.416Z,0
2023-05-07T01:45:08.449Z,0
2023-05-07T01:46:08.418Z,0
2023-05-07T01:47:08.415Z,0
2023-05-07T01:48:08.421Z,0
2023-05-07T01:49:08.418Z,0
2023-05-07T01:50:08.485Z,0
2023-05-07T01:51:08.420Z,0
2023-05-07T01:52:08.416Z,0
2023-05-07T01:53:08.422Z,0
2023-05-07T01:54:08.422Z,0
2023-05-07T01:55:08.421Z,0
2023-05-07T01:56:08.420Z,0
2023-05-07T01:57:08.533Z,0
2023-05-07T01:58:08.430Z,0
2023-05-07T01:59:08.426Z,0
2023-05-07T02:00:08.591Z,0
2023-05-07T02:01:08.425Z,0
2023-05-07T02:02:08.550Z,0
2023-05-07T02:03:08.481Z,0
2023-05-07T02:04:08.543Z,0
2023-05-07T02:05:08.429Z,0
2023-05-07T02:06:08.430Z,0
2023-05-07T02:07:08.433Z,0
2023-05-07T02:08:08.430Z,0
2023-05-07T02:09:08.432Z,0
2023-05-07T02:10:08.490Z,0
2023-05-07T02:11:08.432Z,0
2023-05-07T02:12:08.434Z,0
2023-05-07T02:13:08.571Z,0
2023-05-07T02:14:08.444Z,0
2023-05-07T02:15:08.438Z,0
2023-05-07T02:16:08.497Z,0
2023-05-07T02:17:08.441Z,0
2023-05-07T02:18:08.446Z,0
2023-05-07T02:19:08.442Z,0
2023-05-07T02:20:08.633Z,0
2023-05-07T02:21:08.445Z,0
2023-05-07T02:22:08.447Z,0
2023-05-07T02:23:08.452Z,0
2023-05-07T02:24:08.451Z,0
2023-05-07T02:25:08.470Z,0
2023-05-07T02:26:08.452Z,0
2023-05-07T02:27:08.461Z,0
2023-05-07T02:28:08.458Z,0
2023-05-07T02:29:08.557Z,0
2023-05-07T02:30:08.550Z,0
2023-05-07T02:31:08.458Z,0
2023-05-07T02:32:08.531Z,0
2023-05-07T02:33:08.478Z,0
2023-05-07T02:34:08.465Z,0
2023-05-07T02:35:08.471Z,0
2023-05-07T02:36:08.469Z,0
2023-05-07T02:37:08.486Z,0
2023-05-07T02:38:08.478Z,0
2023-05-07T02:39:08.465Z,0
2023-05-07T02:40:08.510Z,0
2023-05-07T02:41:08.464Z,0
2023-05-07T02:42:08.474Z,0
2023-05-07T02:43:08.466Z,0
2023-05-07T02:44:08.470Z,0
2023-05-07T02:45:08.575Z,0
2023-05-07T02:46:08.502Z,0
2023-05-07T02:47:08.472Z,0
2023-05-07T02:48:08.567Z,0
2023-05-07T02:49:08.473Z,0
2023-05-07T02:50:08.607Z,0
2023-05-07T02:51:08.473Z,0
2023-05-07T02:52:08.471Z,0
2023-05-07T02:53:08.479Z,0
2023-05-07T02:54:08.490Z,0
2023-05-07T02:55:08.484Z,0
2023-05-07T02:56:08.480Z,0
2023-05-07T02:57:08.489Z,0
2023-05-07T02:58:08.478Z,0
2023-05-07T02:59:08.482Z,0
2023-05-07T03:00:08.543Z,0
2023-05-07T03:01:08.524Z,0
2023-05-07T03:02:08.485Z,0
2023-05-07T03:03:08.515Z,0
2023-05-07T03:04:08.508Z,0
2023-05-07T03:05:08.488Z,0
2023-05-07T03:06:08.490Z,0
2023-05-07T03:07:08.498Z,0
2023-05-07T03:08:08.489Z,0
2023-05-07T03:09:08.497Z,0
2023-05-07T03:10:08.798Z,0
2023-05-07T03:11:08.493Z,0
2023-05-07T03:12:08.497Z,0
2023-05-07T03:13:08.599Z,0
2023-05-07T03:14:08.496Z,0
2023-05-07T03:15:08.512Z,0
2023-05-07T03:16:08.555Z,0
2023-05-07T03:17:08.606Z,0
2023-05-07T03:18:08.593Z,0
2023-05-07T03:19:08.548Z,0
2023-05-07T03:20:08.677Z,0
2023-05-07T03:21:08.512Z,0
2023-05-07T03:22:08.504Z,0
2023-05-07T03:23:08.508Z,0
2023-05-07T03:24:08.505Z,0
2023-05-07T03:25:08.506Z,0
2023-05-07T03:26:08.512Z,1
2023-05-07T03:27:08.516Z,1
2023-05-07T03:28:08.522Z,1
2023-05-07T03:29:08.513Z,1
2023-05-07T03:30:08.560Z,1
2023-05-07T03:31:08.523Z,3
2023-05-07T03:32:08.514Z,3
2023-05-07T03:33:08.676Z,3
2023-05-07T03:34:08.510Z,3
2023-05-07T03:35:08.549Z,3
2023-05-07T03:36:08.516Z,5
2023-05-07T03:37:08.514Z,5
2023-05-07T03:38:08.519Z,5
2023-05-07T03:39:08.516Z,5
2023-05-07T03:40:08.640Z,5
2023-05-07T03:41:08.517Z,9
2023-05-07T03:42:08.517Z,9
2023-05-07T03:43:08.529Z,9
2023-05-07T03:44:08.518Z,9
2023-05-07T03:45:08.519Z,9
2023-05-07T03:46:08.581Z,14
2023-05-07T03:47:08.523Z,14
2023-05-07T03:48:08.552Z,14
2023-05-07T03:49:08.620Z,14
2023-05-07T03:50:08.705Z,14
2023-05-07T03:51:08.517Z,20
2023-05-07T03:52:08.524Z,20
2023-05-07T03:53:08.533Z,20
2023-05-07T03:54:08.527Z,20
2023-05-07T03:55:08.532Z,20
2023-05-07T03:56:08.533Z,30
2023-05-07T03:57:08.531Z,30
2023-05-07T03:58:08.538Z,30
2023-05-07T03:59:08.539Z,30
2023-05-07T04:00:08.582Z,30
2023-05-07T04:01:08.604Z,39
2023-05-07T04:02:08.549Z,39
2023-05-07T04:03:08.623Z,39
2023-05-07T04:04:08.569Z,39
2023-05-07T04:05:08.645Z,39
2023-05-07T04:06:08.539Z,57
2023-05-07T04:07:08.541Z,57
2023-05-07T04:08:08.539Z,57
2023-05-07T04:09:08.554Z,57
2023-05-07T04:10:08.591Z,57
2023-05-07T04:11:08.541Z,87
2023-05-07T04:12:08.543Z,87
2023-05-07T04:13:08.605Z,87
2023-05-07T04:14:08.542Z,87
2023-05-07T04:15:08.545Z,87
2023-05-07T04:16:08.570Z,123
2023-05-07T04:17:08.538Z,123
2023-05-07T04:18:08.566Z,123
2023-05-07T04:19:08.552Z,123
2023-05-07T04:20:08.623Z,123
2023-05-07T04:21:08.646Z,159
2023-05-07T04:22:08.548Z,159
2023-05-07T04:23:08.549Z,159
2023-05-07T04:24:08.545Z,159
2023-05-07T04:25:08.547Z,159
2023-05-07T04:26:08.550Z,193
2023-05-07T04:27:08.554Z,193
2023-05-07T04:28:08.557Z,193
2023-05-07T04:29:08.558Z,193
2023-05-07T04:30:08.580Z,193
2023-05-07T04:31:08.556Z,225
2023-05-07T04:32:08.716Z,225
2023-05-07T04:33:08.625Z,225
2023-05-07T04:34:08.560Z,225
2023-05-07T04:35:08.562Z,225
2023-05-07T04:36:08.556Z,236
2023-05-07T04:37:08.653Z,236
2023-05-07T04:38:08.587Z,236
2023-05-07T04:39:08.557Z,236
2023-05-07T04:40:08.624Z,236
2023-05-07T04:41:08.588Z,302
2023-05-07T04:42:08.567Z,302
2023-05-07T04:43:08.569Z,302
2023-05-07T04:44:08.558Z,302
2023-05-07T04:45:08.572Z,302
2023-05-07T04:46:08.588Z,330
2023-05-07T04:47:08.560Z,330
2023-05-07T04:48:08.654Z,330
2023-05-07T04:49:08.564Z,330
2023-05-07T04:50:08.716Z,330
2023-05-07T04:51:08.563Z,323
2023-05-07T04:52:08.564Z,323
2023-05-07T04:53:08.605Z,323
2023-05-07T04:54:08.569Z,323
2023-05-07T04:55:08.564Z,323
2023-05-07T04:56:08.563Z,311
2023-05-07T04:57:08.564Z,311
2023-05-07T04:58:08.571Z,311
2023-05-07T04:59:08.571Z,311
2023-05-07T05:00:08.786Z,311
2023-05-07T05:01:08.601Z,332
2023-05-07T05:02:08.582Z,332
2023-05-07T05:03:08.721Z,332
2023-05-07T05:04:08.737Z,332
2023-05-07T05:05:08.574Z,332
2023-05-07T05:06:08.575Z,400
2023-05-07T05:07:08.571Z,400
2023-05-07T05:08:08.577Z,400
2023-05-07T05:09:08.714Z,400
2023-05-07T05:10:08.716Z,400
2023-05-07T05:11:08.581Z,484
2023-05-07T05:12:08.578Z,484
2023-05-07T05:13:08.611Z,484
2023-05-07T05:14:08.577Z,484
2023-05-07T05:15:08.577Z,484
2023-05-07T05:16:08.609Z,461
2023-05-07T05:17:08.579Z,461
2023-05-07T05:18:08.579Z,461
2023-05-07T05:19:08.577Z,461
2023-05-07T05:20:08.650Z,461
2023-05-07T05:21:08.577Z,517
2023-05-07T05:22:08.593Z,517
2023-05-07T05:23:08.580Z,517
2023-05-07T05:24:08.589Z,517
2023-05-07T05:25:08.684Z,517
2023-05-07T05:26:08.580Z,597
2023-05-07T05:27:08.584Z,597
2023-05-07T05:28:08.587Z,597
2023-05-07T05:29:08.581Z,597
2023-05-07T05:30:08.670Z,597
2023-05-07T05:31:08.600Z,557
2023-05-07T05:32:08.587Z,557
2023-05-07T05:33:08.613Z,557
2023-05-07T05:34:08.599Z,557
2023-05-07T05:35:08.593Z,557
2023-05-07T05:36:08.584Z,559
2023-05-07T05:37:08.581Z,559
2023-05-07T05:38:08.580Z,559
2023-05-07T05:39:08.582Z,559
2023-05-07T05:40:08.681Z,559
2023-05-07T05:41:08.785Z,689
2023-05-07T05:42:08.585Z,689
2023-05-07T05:43:08.601Z,689
2023-05-07T05:44:08.582Z,689
2023-05-07T05:45:08.588Z,689
2023-05-07T05:46:08.594Z,836
2023-05-07T05:47:08.584Z,836
2023-05-07T05:48:08.659Z,836
2023-05-07T05:49:08.596Z,836
2023-05-07T05:50:08.854Z,836
2023-05-07T05:51:08.595Z,721
2023-05-07T05:52:10.655Z,721
2023-05-07T05:53:08.588Z,721
2023-05-07T05:54:08.592Z,721
2023-05-07T05:55:08.603Z,721
2023-05-07T05:56:08.603Z,703
2023-05-07T05:57:08.614Z,703
2023-05-07T05:58:08.599Z,703
2023-05-07T05:59:08.596Z,703
2023-05-07T06:00:08.648Z,703
2023-05-07T06:01:08.596Z,738
2023-05-07T06:02:08.634Z,738
2023-05-07T06:03:08.646Z,738
2023-05-07T06:04:08.592Z,738
2023-05-07T06:05:08.605Z,738
2023-05-07T06:06:08.590Z,757
2023-05-07T06:07:08.603Z,757
2023-05-07T06:08:08.589Z,757
2023-05-07T06:09:08.590Z,757
2023-05-07T06:10:08.728Z,757
2023-05-07T06:11:08.593Z,935
2023-05-07T06:12:08.588Z,935
2023-05-07T06:13:08.814Z,935
2023-05-07T06:14:08.596Z,935
2023-05-07T06:15:08.593Z,935
2023-05-07T06:16:08.611Z,1303
2023-05-07T06:17:08.598Z,1303
2023-05-07T06:18:08.654Z,1303
2023-05-07T06:19:08.625Z,1303
2023-05-07T06:20:08.723Z,1303
2023-05-07T06:21:08.600Z,1349
2023-05-07T06:22:08.600Z,1349
2023-05-07T06:23:08.613Z,1349
2023-05-07T06:24:08.605Z,1349
2023-05-07T06:25:08.595Z,1349
2023-05-07T06:26:08.614Z,1535
2023-05-07T06:27:08.614Z,1535
2023-05-07T06:28:08.605Z,1535
2023-05-07T06:29:08.632Z,1535
2023-05-07T06:30:08.722Z,1535
2023-05-07T06:31:08.609Z,1438
2023-05-07T06:32:08.847Z,1438
2023-05-07T06:33:08.663Z,1438
2023-05-07T06:34:08.618Z,1438
2023-05-07T06:35:08.616Z,1438
2023-05-07T06:36:08.610Z,1486
2023-05-07T06:37:08.632Z,1486
2023-05-07T06:38:08.613Z,1486
2023-05-07T06:39:08.612Z,1486
2023-05-07T06:40:08.763Z,1486
2023-05-07T06:41:08.612Z,2124
2023-05-07T06:42:08.612Z,2124
2023-05-07T06:43:08.622Z,2124
2023-05-07T06:44:09.725Z,2124
2023-05-07T06:45:08.778Z,2124
2023-05-07T06:46:08.649Z,2871
2023-05-07T06:47:08.615Z,2871
2023-05-07T06:48:08.655Z,2871
2023-05-07T06:49:08.628Z,2871
2023-05-07T06:50:08.858Z,2871
2023-05-07T06:51:08.618Z,2403
2023-05-07T06:52:08.623Z,2403
2023-05-07T06:53:08.634Z,2403
2023-05-07T06:54:08.625Z,2403
2023-05-07T06:55:08.626Z,2403
2023-05-07T06:56:08.625Z,3841
2023-05-07T06:57:08.628Z,3841
2023-05-07T06:58:08.630Z,3841
2023-05-07T06:59:08.635Z,3841
2023-05-07T07:00:08.735Z,3841
2023-05-07T07:01:08.756Z,3154
2023-05-07T07:02:08.638Z,3154
2023-05-07T07:03:08.715Z,3154
2023-05-07T07:04:08.663Z,3154
2023-05-07T07:05:08.673Z,3154
2023-05-07T07:06:08.627Z,2571
2023-05-07T07:07:08.624Z,2571
2023-05-07T07:08:08.634Z,2571
2023-05-07T07:09:08.634Z,2571
2023-05-07T07:10:08.734Z,2571
2023-05-07T07:11:08.640Z,2685
2023-05-07T07:12:08.655Z,2685
2023-05-07T07:13:08.647Z,2685
2023-05-07T07:14:08.637Z,2685
2023-05-07T07:15:08.637Z,2685
2023-05-07T07:16:08.702Z,3473
2023-05-07T07:17:08.751Z,3473
2023-05-07T07:18:08.640Z,3473
2023-05-07T07:19:08.633Z,3473
2023-05-07T07:20:09.694Z,3473
2023-05-07T07:21:08.635Z,6358
2023-05-07T07:22:08.637Z,6358
2023-05-07T07:23:08.638Z,6358
2023-05-07T07:24:08.652Z,6358
2023-05-07T07:25:10.680Z,6358
2023-05-07T07:26:08.645Z,6059
2023-05-07T07:27:08.638Z,6059
2023-05-07T07:28:08.648Z,6059
2023-05-07T07:29:08.646Z,6059
2023-05-07T07:30:08.664Z,6059
2023-05-07T07:31:08.659Z,5988
2023-05-07T07:32:08.643Z,5805
2023-05-07T07:33:08.956Z,5653
2023-05-07T07:34:08.642Z,6084
2023-05-07T07:35:08.650Z,6135
2023-05-07T07:36:08.668Z,6521
2023-05-07T07:37:08.647Z,6521
2023-05-07T07:38:08.655Z,6266
2023-05-07T07:39:08.649Z,6272
2023-05-07T07:40:08.764Z,6176
2023-05-07T07:41:08.661Z,6073
2023-05-07T07:42:08.649Z,6342
2023-05-07T07:43:08.665Z,6107
2023-05-07T07:44:08.725Z,5769
2023-05-07T07:45:08.656Z,5814
2023-05-07T07:46:08.651Z,5882
2023-05-07T07:47:08.681Z,5723
2023-05-07T07:48:08.678Z,5723
2023-05-07T07:49:08.684Z,5723
2023-05-07T07:50:08.898Z,6145
2023-05-07T07:51:08.657Z,5959
2023-05-07T07:52:08.664Z,5959
2023-05-07T07:53:08.662Z,5959
2023-05-07T07:54:08.658Z,5959
2023-05-07T07:55:08.660Z,5959
2023-05-07T07:56:08.657Z,5974
2023-05-07T07:57:08.672Z,5946
2023-05-07T07:58:08.665Z,5813
2023-05-07T07:59:08.655Z,5813
2023-05-07T08:00:08.855Z,5813
2023-05-07T08:01:08.688Z,5813
2023-05-07T08:02:08.853Z,5813
2023-05-07T08:03:08.903Z,6291
2023-05-07T08:04:08.780Z,6291
2023-05-07T08:05:08.688Z,6291
2023-05-07T08:06:08.659Z,6239
2023-05-07T08:07:08.667Z,6239
2023-05-07T08:08:08.664Z,6239
2023-05-07T08:09:08.666Z,6239
2023-05-07T08:10:08.718Z,6239
2023-05-07T08:11:08.666Z,6247
2023-05-07T08:12:08.665Z,6247
2023-05-07T08:13:08.841Z,6247
2023-05-07T08:14:08.668Z,6247
2023-05-07T08:15:08.668Z,6247
2023-05-07T08:16:08.671Z,6281
2023-05-07T08:17:08.710Z,6281
2023-05-07T08:18:08.700Z,6281
2023-05-07T08:19:08.699Z,6428
2023-05-07T08:20:08.774Z,6428
2023-05-07T08:21:08.853Z,6428
2023-05-07T08:22:08.675Z,6428
2023-05-07T08:23:08.800Z,6428
2023-05-07T08:24:08.689Z,6366
2023-05-07T08:25:08.677Z,6366
2023-05-07T08:26:08.685Z,6366
2023-05-07T08:27:08.681Z,6366
2023-05-07T08:28:10.008Z,6366
2023-05-07T08:29:08.679Z,6059
2023-05-07T08:30:08.835Z,6059
2023-05-07T08:31:08.741Z,6059
2023-05-07T08:32:08.683Z,6059
2023-05-07T08:33:08.717Z,6059
2023-05-07T08:34:09.909Z,6066
2023-05-07T08:35:08.688Z,6066
2023-05-07T08:36:08.686Z,6066
2023-05-07T08:37:08.789Z,6066
2023-05-07T08:38:08.680Z,6066
2023-05-07T08:39:08.695Z,6059
2023-05-07T08:40:10.170Z,6059
2023-05-07T08:41:08.702Z,6059
2023-05-07T08:42:08.693Z,6059
2023-05-07T08:43:08.695Z,6059
2023-05-07T08:44:08.697Z,6571
2023-05-07T08:45:08.686Z,6571
2023-05-07T08:46:10.272Z,6601
2023-05-07T08:47:08.704Z,6628
2023-05-07T08:48:08.755Z,6628
2023-05-07T08:49:08.696Z,6628
2023-05-07T08:50:08.833Z,6628
2023-05-07T08:51:08.690Z,6628
2023-05-07T08:52:09.950Z,6297
2023-05-07T08:53:08.714Z,6297
2023-05-07T08:54:08.702Z,6297
2023-05-07T08:55:08.702Z,6297
2023-05-07T08:56:08.699Z,6297
2023-05-07T08:57:08.691Z,6275
2023-05-07T08:58:08.693Z,6275
2023-05-07T08:59:08.688Z,6275
2023-05-07T09:00:08.692Z,6534
2023-05-07T09:01:08.693Z,6534
2023-05-07T09:02:09.945Z,6534
2023-05-07T09:03:08.777Z,6038
2023-05-07T09:04:08.713Z,6039
2023-05-07T09:05:08.806Z,5987
2023-05-07T09:06:08.713Z,6468
2023-05-07T09:07:08.695Z,6365
2023-05-07T09:08:08.709Z,6094
2023-05-07T09:09:08.797Z,5987
2023-05-07T09:10:08.846Z,6122
2023-05-07T09:11:08.697Z,6199
2023-05-07T09:12:08.701Z,6199
2023-05-07T09:13:08.705Z,5640
2023-05-07T09:14:09.596Z,5640
2023-05-07T09:15:08.781Z,5542
2023-05-07T09:16:08.737Z,5460
2023-05-07T09:17:08.697Z,5686
2023-05-07T09:18:08.727Z,5577
2023-05-07T09:19:08.703Z,5378
2023-05-07T09:20:10.937Z,5164
2023-05-07T09:21:08.704Z,4577
2023-05-07T09:22:08.707Z,5368
2023-05-07T09:23:08.705Z,5634
2023-05-07T09:24:08.710Z,5580
2023-05-07T09:25:08.905Z,5703
2023-05-07T09:26:09.675Z,5710
2023-05-07T09:27:08.701Z,5341
2023-05-07T09:28:08.699Z,5341
2023-05-07T09:29:08.702Z,5341
2023-05-07T09:30:08.706Z,5341
2023-05-07T09:31:08.736Z,5341
2023-05-07T09:32:08.765Z,5937
2023-05-07T09:33:08.706Z,5937
2023-05-07T09:34:08.702Z,5937
2023-05-07T09:35:08.768Z,5937
2023-05-07T09:36:08.710Z,5937
2023-05-07T09:37:08.712Z,5516
2023-05-07T09:38:08.717Z,5516
2023-05-07T09:39:08.718Z,5516
2023-05-07T09:40:08.709Z,5516
2023-05-07T09:41:08.859Z,5516
2023-05-07T09:42:08.708Z,5644
2023-05-07T09:43:08.710Z,5644
2023-05-07T09:44:09.990Z,5644
2023-05-07T09:45:08.716Z,6223
2023-05-07T09:46:08.775Z,6223
2023-05-07T09:47:08.714Z,5947
2023-05-07T09:48:08.748Z,5610
2023-05-07T09:49:10.920Z,5610
2023-05-07T09:50:08.720Z,5610
2023-05-07T09:51:08.713Z,5610
2023-05-07T09:52:08.711Z,5610
2023-05-07T09:53:08.728Z,5539
2023-05-07T09:54:08.709Z,5539
2023-05-07T09:55:08.808Z,5250
2023-05-07T09:56:08.738Z,5250
2023-05-07T09:57:08.795Z,5250
2023-05-07T09:58:08.711Z,5250
2023-05-07T09:59:08.714Z,5250
2023-05-07T10:00:08.714Z,6021
2023-05-07T10:01:08.790Z,6021
2023-05-07T10:02:08.719Z,6021
2023-05-07T10:03:08.774Z,6021
2023-05-07T10:04:08.717Z,5080
2023-05-07T10:05:08.739Z,5048
2023-05-07T10:06:08.718Z,5048
2023-05-07T10:07:08.719Z,5048
2023-05-07T10:08:08.718Z,4928
2023-05-07T10:09:08.720Z,4928
2023-05-07T10:10:08.719Z,4928
2023-05-07T10:11:08.728Z,4928
2023-05-07T10:12:08.734Z,4928
2023-05-07T10:13:08.835Z,5248
2023-05-07T10:14:08.714Z,5189
2023-05-07T10:15:08.785Z,5189
2023-05-07T10:16:08.720Z,5189
2023-05-07T10:17:08.741Z,5189
2023-05-07T10:18:08.829Z,5189
2023-05-07T10:19:08.720Z,5136
2023-05-07T10:20:08.737Z,5136
2023-05-07T10:21:08.717Z,5136
2023-05-07T10:22:08.724Z,5136
2023-05-07T10:23:08.722Z,5136
2023-05-07T10:24:08.722Z,5485
2023-05-07T10:25:09.193Z,5485
2023-05-07T10:26:08.719Z,5485
2023-05-07T10:27:08.723Z,5485
2023-05-07T10:28:08.734Z,5485
2023-05-07T10:29:08.824Z,3444
2023-05-07T10:30:08.732Z,3444
2023-05-07T10:31:08.739Z,3444
2023-05-07T10:32:08.725Z,3444
2023-05-07T10:33:08.779Z,3444
2023-05-07T10:34:08.730Z,3570
2023-05-07T10:35:08.802Z,3570
2023-05-07T10:36:08.729Z,3570
2023-05-07T10:37:08.729Z,3570
2023-05-07T10:38:08.733Z,3570
2023-05-07T10:39:08.726Z,3100
2023-05-07T10:40:08.743Z,3100
2023-05-07T10:41:08.725Z,3100
2023-05-07T10:42:08.731Z,3100
2023-05-07T10:43:10.472Z,3100
2023-05-07T10:44:08.730Z,3363
2023-05-07T10:45:08.851Z,3363
2023-05-07T10:46:08.755Z,3363
2023-05-07T10:47:08.730Z,3363
2023-05-07T10:48:17.224Z,3363
2023-05-07T10:49:08.735Z,5789
2023-05-07T10:50:08.747Z,5789
2023-05-07T10:51:08.730Z,5789
2023-05-07T10:52:08.730Z,5789
2023-05-07T10:53:08.730Z,5610
2023-05-07T10:54:08.737Z,5610
2023-05-07T10:55:08.783Z,5610
2023-05-07T10:56:08.734Z,5610
2023-05-07T10:57:08.727Z,5610
2023-05-07T10:58:10.480Z,5425
2023-05-07T10:59:08.729Z,5367
2023-05-07T11:00:08.734Z,5367
2023-05-07T11:01:08.848Z,5367
2023-05-07T11:02:08.885Z,5079
2023-05-07T11:03:09.310Z,5303
2023-05-07T11:04:08.731Z,5303
2023-05-07T11:05:08.849Z,5303
2023-05-07T11:06:08.737Z,5303
2023-05-07T11:07:08.734Z,4781
2023-05-07T11:08:08.726Z,4781
2023-05-07T11:09:08.733Z,4834
2023-05-07T11:10:08.745Z,4834
2023-05-07T11:11:08.725Z,4834
2023-05-07T11:12:08.727Z,4834
2023-05-07T11:13:08.758Z,5313
2023-05-07T11:14:08.727Z,5313
2023-05-07T11:15:08.887Z,5450
2023-05-07T11:16:08.761Z,5450
2023-05-07T11:17:08.759Z,5450
2023-05-07T11:18:08.752Z,5450
2023-05-07T11:19:08.733Z,5450
2023-05-07T11:20:08.728Z,4591
2023-05-07T11:21:08.726Z,4791
2023-05-07T11:22:09.605Z,4806
2023-05-07T11:23:08.734Z,4874
2023-05-07T11:24:08.724Z,3574
2023-05-07T11:25:08.797Z,2995
2023-05-07T11:26:08.731Z,2995
2023-05-07T11:27:08.731Z,2682
2023-05-07T11:28:08.732Z,2682
2023-05-07T11:29:08.730Z,2682
2023-05-07T11:30:08.738Z,2682
2023-05-07T11:31:08.841Z,2319
2023-05-07T11:32:08.799Z,2257
2023-05-07T11:33:08.871Z,2257
2023-05-07T11:34:08.732Z,2257
2023-05-07T11:35:08.837Z,2179
2023-05-07T11:36:08.734Z,2185
2023-05-07T11:37:08.731Z,2141
2023-05-07T11:38:08.728Z,2144
2023-05-07T11:39:08.736Z,2127
2023-05-07T11:40:08.786Z,2124
2023-05-07T11:41:08.731Z,2101
2023-05-07T11:42:08.737Z,2101
2023-05-07T11:43:08.773Z,2101
2023-05-07T11:44:08.733Z,2101
2023-05-07T11:45:08.748Z,2222
2023-05-07T11:46:08.763Z,2211
2023-05-07T11:47:08.731Z,2211
2023-05-07T11:48:08.757Z,2211
2023-05-07T11:49:09.385Z,2365
2023-05-07T11:50:09.093Z,2365
2023-05-07T11:51:08.734Z,2255
2023-05-07T11:52:08.727Z,2130
2023-05-07T11:53:08.728Z,2155
2023-05-07T11:54:08.740Z,2186
2023-05-07T11:55:08.868Z,2227
2023-05-07T11:56:08.732Z,2234
2023-05-07T11:57:08.733Z,2194
2023-05-07T11:58:10.203Z,2194
2023-05-07T11:59:08.733Z,2194
2023-05-07T12:00:08.739Z,2194
2023-05-07T12:01:08.729Z,2194
2023-05-07T12:02:08.820Z,2372
2023-05-07T12:03:08.884Z,2372
2023-05-07T12:04:08.848Z,3663
2023-05-07T12:05:08.793Z,2942
2023-05-07T12:06:08.730Z,2942
2023-05-07T12:07:08.729Z,2800
2023-05-07T12:08:08.731Z,2800
2023-05-07T12:09:08.734Z,2800
2023-05-07T12:10:08.755Z,3578
2023-05-07T12:11:08.732Z,3130
2023-05-07T12:12:08.732Z,3046
2023-05-07T12:13:08.789Z,3046
2023-05-07T12:14:10.246Z,3046
2023-05-07T12:15:08.840Z,3046
2023-05-07T12:16:08.735Z,3046
2023-05-07T12:17:08.941Z,3598
2023-05-07T12:18:08.768Z,3598
2023-05-07T12:19:08.738Z,3598
2023-05-07T12:20:08.788Z,2889
2023-05-07T12:21:08.782Z,2487
2023-05-07T12:22:08.738Z,2487
2023-05-07T12:23:08.737Z,2487
2023-05-07T12:24:08.742Z,2487
2023-05-07T12:25:08.919Z,2487
2023-05-07T12:26:08.738Z,2455
2023-05-07T12:27:08.745Z,2455
2023-05-07T12:28:08.767Z,2455
2023-05-07T12:29:08.754Z,2455
2023-05-07T12:30:08.779Z,2455
2023-05-07T12:31:08.820Z,2256
2023-05-07T12:32:08.782Z,2256
2023-05-07T12:33:08.786Z,2256
2023-05-07T12:34:08.755Z,2256
2023-05-07T12:35:08.926Z,2256
2023-05-07T12:36:08.797Z,2154
2023-05-07T12:37:08.789Z,2168
2023-05-07T12:38:08.758Z,2168
2023-05-07T12:39:08.762Z,2168
2023-05-07T12:40:08.898Z,2168
2023-05-07T12:41:08.778Z,2168
2023-05-07T12:42:08.762Z,2283
2023-05-07T12:43:08.768Z,2273
2023-05-07T12:44:08.768Z,2273
2023-05-07T12:45:09.071Z,2273
2023-05-07T12:46:09.407Z,2273
2023-05-07T12:47:08.771Z,2273
2023-05-07T12:48:08.831Z,2069
2023-05-07T12:49:08.787Z,2069
2023-05-07T12:50:08.774Z,2069
2023-05-07T12:51:08.916Z,2069
2023-05-07T12:52:08.778Z,2069
2023-05-07T12:53:08.827Z,1908
2023-05-07T12:54:08.778Z,1914
2023-05-07T12:55:09.032Z,1914
2023-05-07T12:56:08.792Z,1914
2023-05-07T12:57:08.781Z,1914
2023-05-07T12:58:08.787Z,1914
2023-05-07T12:59:08.787Z,1856
2023-05-07T13:00:08.783Z,1856
2023-05-07T13:01:08.816Z,1856
2023-05-07T13:02:08.840Z,1856
2023-05-07T13:03:08.838Z,1856
2023-05-07T13:04:08.865Z,1884
2023-05-07T13:05:08.889Z,1884
2023-05-07T13:06:08.791Z,1884
2023-05-07T13:07:08.792Z,1884
2023-05-07T13:08:08.798Z,1884
2023-05-07T13:09:08.819Z,1947
2023-05-07T13:10:08.805Z,1947
2023-05-07T13:11:08.816Z,1947
2023-05-07T13:12:08.793Z,1947
2023-05-07T13:13:08.846Z,1947
2023-05-07T13:14:08.796Z,2121
2023-05-07T13:15:08.857Z,2220
2023-05-07T13:16:08.819Z,2191
2023-05-07T13:17:08.799Z,2363
2023-05-07T13:18:08.906Z,2150
2023-05-07T13:19:08.800Z,2017
2023-05-07T13:20:08.799Z,1968
2023-05-07T13:21:08.877Z,1948
2023-05-07T13:22:08.804Z,1958
2023-05-07T13:23:08.820Z,1990
2023-05-07T13:24:08.805Z,2025
2023-05-07T13:25:08.826Z,2025
2023-05-07T13:26:18.832Z,2033
2023-05-07T13:27:08.806Z,2047
2023-05-07T13:28:11.068Z,2139
2023-05-07T13:29:08.807Z,2173
2023-05-07T13:30:08.818Z,2147
2023-05-07T13:31:08.933Z,2099
2023-05-07T13:32:08.863Z,2029
2023-05-07T13:33:08.908Z,1983
2023-05-07T13:34:08.816Z,1983
2023-05-07T13:35:09.111Z,1983
2023-05-07T13:36:08.822Z,1983
2023-05-07T13:37:11.171Z,1983
2023-05-07T13:38:08.818Z,1919
2023-05-07T13:39:08.829Z,1919
2023-05-07T13:40:08.857Z,1919
2023-05-07T13:41:08.842Z,1919
2023-05-07T13:42:08.824Z,1919
2023-05-07T13:43:08.824Z,2153
2023-05-07T13:44:08.822Z,2153
2023-05-07T13:45:08.821Z,2153
2023-05-07T13:46:08.887Z,2153
2023-05-07T13:47:08.839Z,2153